Time;durP1;ratioP1;P1;durP2;ratioP2;P2;SDS_P1;SDS_P2;PMS_P1;PMS_P2;Temp;Humidity;BMP_temperature;BMP_pressure;BME280_temperature;BME280_humidity;BME280_pressure;Samples;Min_cycle;Max_cycle;Signal;HPM_P1;HPM_P2
2023/09/04 00:00:12;;;;;;;7.75;4.57;;;;;14.40;95157.00;;;;7393818;19;20148;-77
2023/09/04 00:02:41;;;;;;;6.10;4.03;;;;;14.40;95154.00;;;;7393655;19;20180;-77
2023/09/04 00:05:18;;;;;;;5.32;4.22;;;;;14.40;95153.00;;;;7393962;19;20163;-77
2023/09/04 00:07:47;;;;;;;4.50;4.10;;;;;14.40;95153.00;;;;7393807;19;20581;-77
2023/09/04 00:10:15;;;;;;;7.57;4.82;;;;;14.40;95153.00;;;;7393247;19;20145;-77
2023/09/04 00:12:49;;;;;;;4.70;4.28;;;;;14.30;95151.00;;;;7393121;19;20160;-76
2023/09/04 00:15:25;;;;;;;6.40;3.85;;;;;14.30;95153.00;;;;7394864;19;20610;-75
2023/09/04 00:18:03;;;;;;;4.90;4.50;;;;;14.20;95146.00;;;;7393445;19;20572;-75
2023/09/04 00:20:31;;;;;;;7.68;4.13;;;;;14.20;95152.00;;;;7394870;19;20628;-78
2023/09/04 00:23:06;;;;;;;5.88;3.92;;;;;14.20;95156.00;;;;7395985;19;20600;-78
2023/09/04 00:25:34;;;;;;;6.65;3.85;;;;;14.20;95152.00;;;;7392727;19;20742;-75
2023/09/04 00:28:03;;;;;;;7.05;3.90;;;;;14.20;95149.00;;;;7392870;19;20241;-77
2023/09/04 00:30:37;;;;;;;5.85;4.45;;;;;14.20;95151.00;;;;7394110;19;20142;-77
2023/09/04 00:33:12;;;;;;;5.55;4.28;;;;;14.20;95142.00;;;;7392346;19;20450;-78
2023/09/04 00:35:47;;;;;;;6.07;4.88;;;;;14.10;95144.00;;;;7393631;19;20152;-77
2023/09/04 00:38:21;;;;;;;6.20;4.32;;;;;14.10;95144.00;;;;7395347;19;20129;-75
2023/09/04 00:40:55;;;;;;;5.53;3.88;;;;;14.00;95140.00;;;;7392856;19;20144;-75
2023/09/04 00:43:22;;;;;;;5.53;4.90;;;;;14.10;95136.00;;;;7393488;19;20641;-76
2023/09/04 00:46:03;;;;;;;7.25;5.13;;;;;14.10;95136.00;;;;7393529;19;20600;-77
2023/09/04 00:48:33;;;;;;;6.35;4.63;;;;;14.10;95138.00;;;;7397234;19;20128;-77
2023/09/04 00:51:08;;;;;;;8.05;4.78;;;;;14.10;95135.00;;;;7400904;19;20160;-76
2023/09/04 00:53:37;;;;;;;5.93;4.45;;;;;14.10;95132.00;;;;7399346;19;20181;-75
2023/09/04 00:56:13;;;;;;;4.72;4.15;;;;;14.10;95125.00;;;;7399898;19;20576;-76
2023/09/04 00:58:41;;;;;;;7.13;4.40;;;;;14.10;95139.00;;;;7401388;19;20494;-76
2023/09/04 01:01:15;;;;;;;4.85;4.38;;;;;14.10;95131.00;;;;7401089;19;20144;-79
2023/09/04 01:03:49;;;;;;;4.78;4.28;;;;;14.00;95136.00;;;;7399604;19;20140;-79
2023/09/04 01:06:25;;;;;;;5.63;4.53;;;;;14.00;95130.00;;;;7397622;19;20167;-79
2023/09/04 01:08:55;;;;;;;6.75;4.72;;;;;14.00;95131.00;;;;7399737;19;20140;-79
2023/09/04 01:11:33;;;;;;;6.25;4.68;;;;;14.00;95136.00;;;;7398557;19;20133;-79
2023/09/04 01:14:07;;;;;;;9.98;4.65;;;;;13.90;95138.00;;;;7398966;19;20608;-79
2023/09/04 01:16:49;;;;;;;5.10;4.47;;;;;13.90;95137.00;;;;7396286;19;20168;-79
2023/09/04 01:19:24;;;;;;;5.18;4.68;;;;;13.90;95128.00;;;;7401151;19;20140;-78
2023/09/04 01:21:59;;;;;;;6.82;5.30;;;;;13.90;95125.00;;;;7399927;19;20607;-80
2023/09/04 01:24:27;;;;;;;5.15;4.38;;;;;13.90;95125.00;;;;7399393;19;20148;-79
2023/09/04 01:27:12;;;;;;;6.47;4.50;;;;;13.90;95127.00;;;;7400153;19;20133;-79
2023/09/04 01:30:14;;;;;;;9.15;4.60;;;;;13.80;95131.00;;;;7400156;19;20592;-79
2023/09/04 01:32:58;;;;;;;9.77;4.80;;;;;14.10;95127.00;;;;7400808;19;20210;-77
2023/09/04 01:35:34;;;;;;;7.25;5.10;;;;;14.10;95130.00;;;;7397973;19;20136;-77
2023/09/04 01:38:09;;;;;;;6.10;4.60;;;;;14.00;95123.00;;;;7398211;19;20144;-78
2023/09/04 01:40:37;;;;;;;6.53;4.60;;;;;14.00;95126.00;;;;7399114;19;20165;-79
2023/09/04 01:43:12;;;;;;;6.93;5.18;;;;;13.90;95125.00;;;;7398025;19;20602;-79
2023/09/04 01:45:40;;;;;;;7.10;4.90;;;;;13.90;95119.00;;;;7398247;19;20212;-77
2023/09/04 01:48:14;;;;;;;5.18;4.57;;;;;13.80;95110.00;;;;7397307;19;20148;-78
2023/09/04 01:50:41;;;;;;;8.85;4.95;;;;;13.80;95116.00;;;;7398746;19;20133;-78
2023/09/04 01:53:16;;;;;;;8.70;5.07;;;;;13.70;95105.00;;;;7398044;19;20591;-78
2023/09/04 01:55:44;;;;;;;6.75;5.20;;;;;13.60;95115.00;;;;7399214;19;20564;-78
2023/09/04 01:58:18;;;;;;;6.95;5.10;;;;;13.60;95109.00;;;;7398054;19;20148;-78
2023/09/04 02:00:47;;;;;;;5.78;4.68;;;;;13.60;95100.00;;;;7397905;19;20528;-78
2023/09/04 02:03:15;;;;;;;7.13;4.80;;;;;13.50;95107.00;;;;7398845;19;20149;-78
2023/09/04 02:05:49;;;;;;;7.13;5.30;;;;;13.50;95108.00;;;;7396510;19;20140;-78
2023/09/04 02:08:17;;;;;;;6.05;4.88;;;;;13.40;95100.00;;;;7398244;19;20193;-80
2023/09/04 02:10:55;;;;;;;7.63;5.32;;;;;13.40;95103.00;;;;7397377;19;20561;-78
2023/09/04 02:13:29;;;;;;;5.80;5.20;;;;;13.40;95101.00;;;;7396729;19;20149;-78
2023/09/04 02:16:10;;;;;;;6.80;4.95;;;;;13.30;95095.00;;;;7396750;19;20145;-77
2023/09/04 02:18:39;;;;;;;7.00;5.50;;;;;13.30;95097.00;;;;7399049;19;20594;-79
2023/09/04 02:21:13;;;;;;;5.97;5.03;;;;;13.30;95102.00;;;;7397509;19;20142;-78
2023/09/04 02:23:47;;;;;;;6.50;5.05;;;;;13.30;95104.00;;;;7396017;19;20169;-77
2023/09/04 02:26:15;;;;;;;7.38;5.20;;;;;13.30;95109.00;;;;7397971;19;20172;-78
2023/09/04 02:28:49;;;;;;;9.63;6.05;;;;;13.30;95101.00;;;;7393657;19;20624;-78
2023/09/04 02:31:16;;;;;;;8.00;5.60;;;;;13.30;95103.00;;;;7398132;19;20592;-79
2023/09/04 02:33:52;;;;;;;9.38;5.38;;;;;13.40;95098.00;;;;7395971;19;20482;-77
2023/09/04 02:36:19;;;;;;;10.07;5.47;;;;;13.30;95094.00;;;;7397215;19;20139;-79
2023/09/04 02:38:47;;;;;;;7.88;5.72;;;;;13.30;95089.00;;;;7397613;19;20143;-78
2023/09/04 02:41:23;;;;;;;8.82;6.35;;;;;13.50;95093.00;;;;7397713;19;20500;-78
2023/09/04 02:43:51;;;;;;;8.32;5.95;;;;;13.50;95085.00;;;;7394648;19;20157;-77
2023/09/04 02:46:32;;;;;;;9.68;6.35;;;;;13.50;95089.00;;;;7397049;19;20615;-78
2023/09/04 02:49:06;;;;;;;8.20;5.80;;;;;13.60;95087.00;;;;7394784;19;20144;-78
2023/09/04 02:51:40;;;;;;;7.38;5.85;;;;;13.60;95091.00;;;;7396862;19;20136;-78
2023/09/04 02:54:08;;;;;;;9.75;5.65;;;;;13.60;95092.00;;;;7397795;19;20156;-79
2023/09/04 02:56:42;;;;;;;6.70;5.28;;;;;13.60;95091.00;;;;7397520;19;20139;-78
2023/09/04 02:59:10;;;;;;;6.32;5.53;;;;;13.50;95086.00;;;;7394486;19;20168;-78
2023/09/04 03:01:44;;;;;;;7.47;6.13;;;;;13.50;95088.00;;;;7395612;19;20591;-77
2023/09/04 03:04:20;;;;;;;9.48;6.10;;;;;13.50;95087.00;;;;7397744;19;20140;-79
2023/09/04 03:06:54;;;;;;;7.63;5.72;;;;;13.60;95094.00;;;;7394815;19;20137;-79
2023/09/04 03:09:21;;;;;;;7.22;5.78;;;;;13.60;95098.00;;;;7393050;19;20145;-78
2023/09/04 03:11:56;;;;;;;7.43;5.82;;;;;13.70;95096.00;;;;7394674;19;20139;-77
2023/09/04 03:14:23;;;;;;;7.78;5.72;;;;;13.60;95092.00;;;;7393413;19;20208;-78
2023/09/04 03:17:04;;;;;;;7.28;5.38;;;;;13.50;95088.00;;;;7392743;19;20191;-77
2023/09/04 03:19:39;;;;;;;7.75;5.00;;;;;13.40;95085.00;;;;7396052;19;20166;-74
2023/09/04 03:22:06;;;;;;;6.55;5.25;;;;;13.30;95086.00;;;;7394293;19;20624;-76
2023/09/04 03:24:41;;;;;;;6.38;5.15;;;;;13.20;95080.00;;;;7394826;19;20604;-76
2023/09/04 03:27:16;;;;;;;6.65;5.28;;;;;13.30;95088.00;;;;7397242;19;20566;-74
2023/09/04 03:29:44;;;;;;;7.80;5.45;;;;;13.30;95101.00;;;;7394150;19;20144;-74
2023/09/04 03:32:18;;;;;;;7.43;5.57;;;;;13.20;95090.00;;;;7393825;19;20128;-75
2023/09/04 03:34:52;;;;;;;8.75;5.65;;;;;13.20;95086.00;;;;7395649;19;20144;-76
2023/09/04 03:37:26;;;;;;;8.50;5.45;;;;;13.20;95084.00;;;;7393937;19;20189;-76
2023/09/04 03:39:53;;;;;;;8.43;6.25;;;;;13.10;95092.00;;;;7394761;19;20627;-76
2023/09/04 03:42:28;;;;;;;6.53;5.72;;;;;13.00;95087.00;;;;7394338;19;20177;-75
2023/09/04 03:44:57;;;;;;;6.57;5.72;;;;;13.00;95090.00;;;;7393801;19;20141;-75
2023/09/04 03:47:24;;;;;;;7.85;5.55;;;;;13.00;95087.00;;;;7393497;19;20600;-75
2023/09/04 03:49:59;;;;;;;9.82;6.68;;;;;13.00;95089.00;;;;7395900;19;20212;-75
2023/09/04 03:52:26;;;;;;;6.07;5.47;;;;;13.00;95097.00;;;;7393948;19;20808;-75
2023/09/04 03:55:01;;;;;;;7.85;6.50;;;;;13.00;95100.00;;;;7394567;19;20471;-76
2023/09/04 03:57:36;;;;;;;8.02;5.70;;;;;12.90;95097.00;;;;7393225;19;20628;-75
2023/09/04 04:00:38;;;;;;;8.38;5.35;;;;;12.90;95102.00;;;;7394548;19;20150;-75
2023/09/04 04:03:05;;;;;;;6.35;5.70;;;;;12.90;95093.00;;;;7395894;19;20137;-76
2023/09/04 04:05:42;;;;;;;8.40;5.50;;;;;12.80;95096.00;;;;7395628;19;20140;-76
2023/09/04 04:08:10;;;;;;;6.68;5.72;;;;;12.80;95101.00;;;;7392410;19;20599;-75
2023/09/04 04:10:44;;;;;;;6.35;5.25;;;;;12.80;95102.00;;;;7395048;19;20125;-76
2023/09/04 04:13:20;;;;;;;6.90;5.97;;;;;12.80;95110.00;;;;7395447;19;20129;-75
2023/09/04 04:16:04;;;;;;;7.55;5.82;;;;;12.70;95108.00;;;;7392822;19;20152;-76
2023/09/04 04:18:38;;;;;;;9.93;5.95;;;;;12.60;95113.00;;;;7393016;19;20596;-76
2023/09/04 04:21:14;;;;;;;6.38;5.40;;;;;12.70;95113.00;;;;7395349;19;20131;-75
2023/09/04 04:23:41;;;;;;;8.07;5.70;;;;;12.70;95116.00;;;;7398126;19;20137;-76
2023/09/04 04:26:16;;;;;;;9.07;5.88;;;;;12.60;95082.00;;;;7399718;19;20140;-75
2023/09/04 04:28:44;;;;;;;6.93;5.68;;;;;12.60;95109.00;;;;7398725;19;20148;-78
2023/09/04 04:31:19;;;;;;;7.55;5.85;;;;;12.60;95105.00;;;;7400258;19;20157;-78
2023/09/04 04:33:55;;;;;;;7.85;5.85;;;;;12.60;95109.00;;;;7400995;19;20643;-78
2023/09/04 04:36:29;;;;;;;6.78;5.72;;;;;12.60;95107.00;;;;7400035;19;20506;-78
2023/09/04 04:39:03;;;;;;;6.43;5.47;;;;;12.60;95107.00;;;;7399960;19;20148;-78
2023/09/04 04:41:38;;;;;;;7.38;5.85;;;;;12.60;95101.00;;;;7400309;19;20150;-77
2023/09/04 04:44:12;;;;;;;7.35;5.30;;;;;12.60;95098.00;;;;7401652;19;20133;-78
2023/09/04 04:46:49;;;;;;;14.02;5.65;;;;;12.70;95106.00;;;;7399405;19;20154;-78
2023/09/04 04:49:21;;;;;;;8.05;6.18;;;;;12.60;95106.00;;;;7399616;19;20213;-78
2023/09/04 04:51:56;;;;;;;6.93;5.82;;;;;12.70;95102.00;;;;7399505;19;20140;-78
2023/09/04 04:54:23;;;;;;;8.35;6.30;;;;;12.60;95104.00;;;;7400776;19;20136;-78
2023/09/04 04:56:58;;;;;;;8.02;5.88;;;;;12.60;95099.00;;;;7400293;19;20146;-78
2023/09/04 04:59:28;;;;;;;6.20;5.47;;;;;12.70;95106.00;;;;7398715;19;20208;-78
2023/09/04 05:02:02;;;;;;;11.60;8.90;;;;;12.80;95108.00;;;;7397500;19;20171;-78
2023/09/04 05:04:29;;;;;;;10.02;8.52;;;;;12.80;95104.00;;;;7399070;19;20173;-78
2023/09/04 05:07:04;;;;;;;10.55;6.47;;;;;13.00;95105.00;;;;7394671;19;20698;-78
2023/09/04 05:09:33;;;;;;;8.75;7.10;;;;;13.00;95099.00;;;;7374961;19;20129;-79
2023/09/04 05:12:08;;;;;;;7.75;6.95;;;;;12.80;95096.00;;;;7387770;19;20140;-78
2023/09/04 05:14:42;;;;;;;7.40;6.70;;;;;13.10;95092.00;;;;7387365;19;20144;-78
2023/09/04 05:17:22;;;;;;;8.93;7.07;;;;;13.20;95080.00;;;;7386629;19;20159;-78
2023/09/04 05:19:57;;;;;;;8.73;7.30;;;;;13.30;95088.00;;;;7387327;19;20548;-77
2023/09/04 05:22:32;;;;;;;9.90;7.65;;;;;13.40;95083.00;;;;7390303;19;20639;-78
2023/09/04 05:25:09;;;;;;;9.35;7.05;;;;;13.60;95088.00;;;;7388017;19;20188;-77
2023/09/04 05:27:37;;;;;;;9.30;6.80;;;;;13.70;95082.00;;;;7388275;19;20619;-77
2023/09/04 05:30:11;;;;;;;7.93;6.82;;;;;13.80;95084.00;;;;7386884;19;20128;-77
2023/09/04 05:32:39;;;;;;;10.35;7.20;;;;;13.90;95088.00;;;;7388844;19;20144;-76
2023/09/04 05:35:13;;;;;;;8.10;6.78;;;;;14.00;95083.00;;;;7387799;19;20666;-78
2023/09/04 05:37:43;;;;;;;8.30;6.55;;;;;14.10;95080.00;;;;7388291;19;20160;-76
2023/09/04 05:40:18;;;;;;;10.20;7.05;;;;;14.20;95086.00;;;;7388905;19;20125;-74
2023/09/04 05:42:46;;;;;;;7.93;6.55;;;;;14.30;95084.00;;;;7393748;19;20155;-74
2023/09/04 05:45:22;;;;;;;8.95;6.57;;;;;14.40;95075.00;;;;7394070;19;20491;-73
2023/09/04 05:47:56;;;;;;;7.68;6.43;;;;;14.50;95072.00;;;;7394930;19;20163;-73
2023/09/04 05:50:30;;;;;;;7.63;6.75;;;;;14.70;95079.00;;;;7395230;19;20306;-74
2023/09/04 05:52:59;;;;;;;7.45;6.03;;;;;14.70;95064.00;;;;7394054;19;20129;-75
2023/09/04 05:55:36;;;;;;;7.82;5.75;;;;;14.80;95058.00;;;;7394546;19;20175;-74
2023/09/04 05:58:04;;;;;;;6.50;5.70;;;;;15.00;95071.00;;;;7393112;19;20247;-75
2023/09/04 06:00:40;;;;;;;5.70;5.10;;;;;15.10;95076.00;;;;7394280;19;20152;-75
2023/09/04 06:03:09;;;;;;;6.43;5.50;;;;;15.10;95072.00;;;;7394399;19;20145;-75
2023/09/04 06:05:43;;;;;;;5.43;4.93;;;;;15.30;95085.00;;;;7395412;19;20141;-75
2023/09/04 06:08:11;;;;;;;7.90;6.00;;;;;15.40;95087.00;;;;7395040;19;20129;-75
2023/09/04 06:10:45;;;;;;;6.40;5.70;;;;;15.50;95083.00;;;;7397120;19;20129;-75
2023/09/04 06:13:13;;;;;;;5.80;5.20;;;;;15.50;95079.00;;;;7393146;19;20172;-75
2023/09/04 06:16:00;;;;;;;9.20;4.90;;;;;15.60;95081.00;;;;7393173;19;20176;-74
2023/09/04 06:18:37;;;;;;;6.75;5.00;;;;;15.70;95080.00;;;;7396010;19;20492;-74
2023/09/04 06:21:12;;;;;;;5.45;4.72;;;;;15.80;95073.00;;;;7396236;19;20136;-75
2023/09/04 06:23:47;;;;;;;6.20;5.07;;;;;15.90;95073.00;;;;7396467;19;20136;-76
2023/09/04 06:26:21;;;;;;;6.63;4.88;;;;;15.90;95074.00;;;;7393033;19;20152;-76
2023/09/04 06:28:55;;;;;;;6.78;4.65;;;;;16.00;95080.00;;;;7392859;19;20224;-75
2023/09/04 06:31:29;;;;;;;7.53;4.85;;;;;16.10;95074.00;;;;7393883;19;20140;-74
2023/09/04 06:33:57;;;;;;;5.43;4.70;;;;;16.10;95076.00;;;;7388084;19;20133;-77
2023/09/04 06:36:32;;;;;;;5.85;4.43;;;;;16.20;95077.00;;;;7384358;19;20140;-77
2023/09/04 06:39:06;;;;;;;4.90;4.30;;;;;16.30;95080.00;;;;7385740;19;20158;-75
2023/09/04 06:41:49;;;;;;;7.25;4.43;;;;;16.40;95085.00;;;;7386371;19;21342;-76
2023/09/04 06:44:32;;;;;;;6.95;5.35;;;;;16.60;95078.00;;;;7383981;19;20153;-76
2023/09/04 06:47:00;;;;;;;6.97;4.60;;;;;16.70;95077.00;;;;7385445;19;20128;-76
2023/09/04 06:49:34;;;;;;;5.15;4.65;;;;;16.70;95072.00;;;;7383825;19;20166;-76
2023/09/04 06:52:02;;;;;;;5.82;3.85;;;;;17.00;95056.00;;;;7384546;19;20593;-77
2023/09/04 06:54:40;;;;;;;5.68;4.22;;;;;17.10;95083.00;;;;7383891;19;20162;-77
2023/09/04 06:57:08;;;;;;;5.38;4.65;;;;;17.20;95072.00;;;;7385308;19;20141;-78
2023/09/04 06:59:43;;;;;;;5.32;4.18;;;;;17.30;95071.00;;;;7383549;19;20644;-77
2023/09/04 07:02:17;;;;;;;4.32;3.70;;;;;17.40;95067.00;;;;7383965;19;20181;-76
2023/09/04 07:04:47;;;;;;;5.70;3.65;;;;;17.40;95071.00;;;;7384703;19;20156;-77
2023/09/04 07:07:21;;;;;;;5.13;3.55;;;;;17.40;95072.00;;;;7384446;19;20524;-76
2023/09/04 07:09:48;;;;;;;4.10;3.70;;;;;17.70;95070.00;;;;7383523;19;20155;-76
2023/09/04 07:12:23;;;;;;;7.30;3.83;;;;;17.60;95080.00;;;;7385397;19;20140;-77
2023/09/04 07:14:50;;;;;;;5.75;3.67;;;;;17.70;95072.00;;;;7382444;19;20153;-76
2023/09/04 07:17:31;;;;;;;4.32;3.58;;;;;17.90;95070.00;;;;7383954;19;20627;-76
2023/09/04 07:20:07;;;;;;;4.25;3.70;;;;;17.80;95071.00;;;;7384917;19;20582;-78
2023/09/04 07:22:41;;;;;;;4.72;3.75;;;;;17.90;95069.00;;;;7384996;19;20133;-78
2023/09/04 07:25:16;;;;;;;5.30;3.80;;;;;18.10;95063.00;;;;7382910;19;20131;-78
2023/09/04 07:27:47;;;;;;;4.60;3.97;;;;;18.30;95067.00;;;;7384507;19;20162;-78
2023/09/04 07:30:15;;;;;;;4.15;3.67;;;;;18.60;95063.00;;;;7382783;19;20148;-77
2023/09/04 07:32:50;;;;;;;5.68;3.72;;;;;18.70;95062.00;;;;7383627;19;20543;-77
2023/09/04 07:35:17;;;;;;;4.63;4.05;;;;;18.70;95064.00;;;;7385693;19;20129;-76
2023/09/04 07:37:52;;;;;;;4.68;3.30;;;;;18.70;95061.00;;;;7383296;19;20161;-78
2023/09/04 07:40:26;;;;;;;5.43;3.55;;;;;18.70;95069.00;;;;7381942;19;20179;-77
2023/09/04 07:42:54;;;;;;;7.60;3.50;;;;;19.10;95070.00;;;;7385744;19;20545;-77
2023/09/04 07:45:29;;;;;;;4.07;3.65;;;;;19.10;95074.00;;;;7384073;19;20643;-78
2023/09/04 07:48:04;;;;;;;3.45;3.15;;;;;19.20;95069.00;;;;7382110;19;20713;-76
2023/09/04 07:50:32;;;;;;;3.70;3.28;;;;;19.30;95072.00;;;;7382208;19;20257;-76
2023/09/04 07:53:00;;;;;;;3.45;3.15;;;;;19.40;95068.00;;;;7372547;19;20153;-76
2023/09/04 07:55:34;;;;;;;4.00;3.60;;;;;19.40;95062.00;;;;7381365;19;20159;-77
2023/09/04 07:58:10;;;;;;;3.50;3.20;;;;;19.30;95062.00;;;;7388219;19;20535;-77
2023/09/04 08:00:50;;;;;;;4.40;3.55;;;;;19.50;95062.00;;;;7387674;19;20595;-78
2023/09/04 08:03:18;;;;;;;3.28;2.97;;;;;19.70;95064.00;;;;7387661;19;20623;-77
2023/09/04 08:05:53;;;;;;;3.88;3.03;;;;;19.70;95069.00;;;;7387277;19;20541;-77
2023/09/04 08:08:29;;;;;;;4.10;3.75;;;;;19.70;95070.00;;;;7390737;19;20586;-76
2023/09/04 08:11:03;;;;;;;4.40;3.42;;;;;19.50;95072.00;;;;7389453;19;20144;-77
2023/09/04 08:13:31;;;;;;;3.47;3.17;;;;;19.50;95075.00;;;;7388961;19;20236;-78
2023/09/04 08:15:58;;;;;;;3.55;3.20;;;;;19.60;95069.00;;;;7388553;19;20180;-78
2023/09/04 08:18:39;;;;;;;5.28;3.30;;;;;19.80;95065.00;;;;7388415;19;20139;-76
2023/09/04 08:21:14;;;;;;;3.45;3.15;;;;;20.00;95069.00;;;;7388295;19;20157;-76
2023/09/04 08:23:55;;;;;;;3.58;3.28;;;;;20.20;95064.00;;;;7387858;19;20175;-77
2023/09/04 08:26:30;;;;;;;3.90;3.10;;;;;20.40;95072.00;;;;7389655;19;20496;-76
2023/09/04 08:28:58;;;;;;;4.85;2.88;;;;;20.80;95060.00;;;;7389443;19;20140;-76
2023/09/04 08:31:33;;;;;;;3.00;2.70;;;;;20.80;95066.00;;;;7389037;19;20132;-77
2023/09/04 08:34:07;;;;;;;3.75;3.10;;;;;21.30;95064.00;;;;7389305;19;20263;-77
2023/09/04 08:36:42;;;;;;;3.05;2.75;;;;;21.20;95061.00;;;;7388920;19;20166;-77
2023/09/04 08:39:16;;;;;;;4.07;2.70;;;;;21.00;95065.00;;;;7388506;19;20136;-78
2023/09/04 08:41:50;;;;;;;3.47;2.70;;;;;21.10;95057.00;;;;7387672;19;20478;-77
2023/09/04 08:44:19;;;;;;;4.13;2.67;;;;;21.30;95051.00;;;;7387937;19;20171;-78
2023/09/04 08:46:58;;;;;;;2.95;2.70;;;;;21.50;95060.00;;;;7390227;19;20145;-78
2023/09/04 08:49:32;;;;;;;5.85;2.75;;;;;21.40;95052.00;;;;7389183;19;20600;-77
2023/09/04 08:52:06;;;;;;;4.30;2.85;;;;;21.50;95059.00;;;;7388183;19;20148;-74
2023/09/04 08:54:34;;;;;;;4.43;2.88;;;;;21.50;95058.00;;;;7388149;19;20136;-74
2023/09/04 08:57:11;;;;;;;3.25;2.95;;;;;21.80;95060.00;;;;7386090;19;20212;-76
2023/09/04 08:59:46;;;;;;;4.13;3.05;;;;;21.90;95058.00;;;;7386080;19;20153;-75
2023/09/04 09:02:16;;;;;;;3.53;2.70;;;;;21.70;95054.00;;;;7387500;19;20188;-75
2023/09/04 09:04:51;;;;;;;6.88;2.42;;;;;21.50;95060.00;;;;7387978;19;20225;-74
2023/09/04 09:07:23;;;;;;;4.45;3.10;;;;;21.80;95057.00;;;;7385355;19;20144;-73
2023/09/04 09:10:04;;;;;;;5.25;3.22;;;;;22.10;95060.00;;;;7385636;19;20192;-77
2023/09/04 09:12:44;;;;;;;5.53;3.25;;;;;22.40;95064.00;;;;7386802;19;23464;-74
2023/09/04 09:15:19;;;;;;;3.65;2.72;;;;;22.00;95061.00;;;;7387347;19;20149;-77
2023/09/04 09:17:59;;;;;;;4.03;2.42;;;;;22.20;95059.00;;;;7384509;19;20154;-77
2023/09/04 09:20:44;;;;;;;3.10;2.40;;;;;21.90;95062.00;;;;7384857;19;20144;-75
2023/09/04 09:23:18;;;;;;;5.28;3.28;;;;;22.20;95057.00;;;;7384865;19;20236;-76
2023/09/04 09:25:55;;;;;;;2.83;2.58;;;;;22.20;95065.00;;;;7387147;19;20132;-75
2023/09/04 09:28:33;;;;;;;4.38;2.65;;;;;22.10;95061.00;;;;7384405;19;20586;-76
2023/09/04 09:31:01;;;;;;;4.78;2.70;;;;;22.00;95021.00;;;;7386951;19;20147;-76
2023/09/04 09:33:35;;;;;;;3.97;2.97;;;;;22.20;95069.00;;;;7385095;19;20145;-77
2023/09/04 09:36:05;;;;;;;4.00;2.67;;;;;22.30;95058.00;;;;7384414;19;20904;-76
2023/09/04 09:38:46;;;;;;;6.47;2.75;;;;;22.50;95064.00;;;;7384473;19;20621;-76
2023/09/04 09:41:20;;;;;;;2.72;2.40;;;;;22.60;95058.00;;;;7385665;19;20162;-76
2023/09/04 09:43:55;;;;;;;3.70;2.58;;;;;22.60;95050.00;;;;7383799;19;20163;-77
2023/09/04 09:46:30;;;;;;;10.27;2.78;;;;;22.90;95049.00;;;;7385148;19;20577;-77
2023/09/04 09:48:59;;;;;;;4.05;2.40;;;;;23.20;95050.00;;;;7384859;19;20231;-76
2023/09/04 09:51:37;;;;;;;2.95;2.65;;;;;23.30;95043.00;;;;7384855;19;20148;-77
2023/09/04 09:54:12;;;;;;;6.38;2.60;;;;;23.00;95043.00;;;;7384031;19;21129;-77
2023/09/04 09:56:47;;;;;;;5.15;2.65;;;;;23.10;95044.00;;;;7384830;19;20133;-78
2023/09/04 09:59:15;;;;;;;4.22;2.75;;;;;23.20;95040.00;;;;7385926;19;20145;-76
2023/09/04 10:01:49;;;;;;;3.47;2.70;;;;;23.40;95037.00;;;;7384880;19;20151;-77
2023/09/04 10:04:25;;;;;;;3.78;2.50;;;;;23.70;95036.00;;;;7383330;19;20167;-75
2023/09/04 10:06:59;;;;;;;3.20;2.80;;;;;23.60;95036.00;;;;7385975;19;20129;-75
2023/09/04 10:09:44;;;;;;;4.80;2.50;;;;;23.60;95038.00;;;;7381466;19;20173;-75
2023/09/04 10:12:26;;;;;;;4.50;2.58;;;;;23.70;95034.00;;;;7382735;19;20139;-75
2023/09/04 10:15:01;;;;;;;2.83;2.33;;;;;24.00;95032.00;;;;7383183;19;20136;-75
2023/09/04 10:17:52;;;;;;;7.53;2.97;;;;;24.00;95032.00;;;;7382996;19;20191;-75
2023/09/04 10:20:27;;;;;;;4.15;2.75;;;;;24.20;95028.00;;;;7387182;19;20609;-74
2023/09/04 10:23:07;;;;;;;2.53;2.33;;;;;24.30;95030.00;;;;7383709;19;20148;-74
2023/09/04 10:25:57;;;;;;;3.17;2.78;;;;;24.30;95028.00;;;;7383804;19;20155;-72
2023/09/04 10:28:40;;;;;;;3.97;3.35;;;;;24.60;95020.00;;;;7384654;19;20154;-74
2023/09/04 10:31:16;;;;;;;6.53;3.28;;;;;25.10;95024.00;;;;7384196;19;20156;-74
2023/09/04 10:33:43;;;;;;;3.60;3.17;;;;;25.20;95015.00;;;;7385352;19;20156;-74
2023/09/04 10:36:20;;;;;;;4.43;2.45;;;;;25.50;95023.00;;;;7384483;19;20519;-73
2023/09/04 10:38:48;;;;;;;5.03;2.90;;;;;25.70;95018.00;;;;7383176;19;20133;-73
2023/09/04 10:41:22;;;;;;;3.85;2.90;;;;;26.00;95020.00;;;;7385057;19;20200;-73
2023/09/04 10:43:56;;;;;;;2.55;2.35;;;;;25.40;95022.00;;;;7386059;19;20208;-73
2023/09/04 10:46:24;;;;;;;3.15;2.85;;;;;25.20;95009.00;;;;7383552;19;20511;-72
2023/09/04 10:48:58;;;;;;;3.08;2.63;;;;;25.20;95011.00;;;;7385505;19;20601;-72
2023/09/04 10:51:26;;;;;;;4.45;3.00;;;;;25.30;95012.00;;;;7384735;19;20181;-73
2023/09/04 10:54:01;;;;;;;2.92;2.50;;;;;25.90;95014.00;;;;7384795;19;20496;-73
2023/09/04 10:56:55;;;;;;;3.00;2.47;;;;;25.60;95014.00;;;;7385293;19;20160;-74
2023/09/04 10:59:31;;;;;;;3.20;2.90;;;;;25.60;95007.00;;;;7384715;19;20635;-75
2023/09/04 11:02:28;;;;;;;3.67;3.05;;;;;25.80;95007.00;;;;7384033;19;20240;-74
2023/09/04 11:04:58;;;;;;;3.42;2.92;;;;;26.00;95000.00;;;;7382161;19;20157;-73
2023/09/04 11:07:34;;;;;;;3.20;2.90;;;;;26.20;95006.00;;;;7383008;19;20152;-72
2023/09/04 11:10:29;;;;;;;4.88;2.92;;;;;26.30;94999.00;;;;7384215;19;20562;-74
2023/09/04 11:13:03;;;;;;;3.92;2.88;;;;;26.20;94994.00;;;;7385590;19;20583;-77
2023/09/04 11:15:33;;;;;;;3.72;2.78;;;;;26.20;94996.00;;;;7384065;19;20603;-73
2023/09/04 11:18:15;;;;;;;2.90;2.60;;;;;26.20;94985.00;;;;7382616;19;20569;-73
2023/09/04 11:20:46;;;;;;;3.03;2.70;;;;;26.40;94980.00;;;;7384722;19;20133;-72
2023/09/04 11:23:23;;;;;;;4.15;2.75;;;;;26.20;94982.00;;;;7383831;19;20553;-73
2023/09/04 11:25:54;;;;;;;5.95;3.03;;;;;26.10;94985.00;;;;7382590;19;20594;-76
2023/09/04 11:28:29;;;;;;;13.88;3.17;;;;;26.60;94973.00;;;;7382677;19;20176;-77
2023/09/04 11:30:59;;;;;;;4.03;3.15;;;;;26.70;94974.00;;;;7382588;19;20129;-75
2023/09/04 11:33:33;;;;;;;3.17;2.88;;;;;26.80;94978.00;;;;7382719;19;20148;-75
2023/09/04 11:36:04;;;;;;;7.85;3.20;;;;;27.10;94979.00;;;;7382814;19;20592;-75
2023/09/04 11:38:39;;;;;;;7.60;2.70;;;;;27.20;94970.00;;;;7383956;19;20135;-76
2023/09/04 11:41:17;;;;;;;3.45;2.97;;;;;27.80;94967.00;;;;7383044;19;20137;-78
2023/09/04 11:43:51;;;;;;;5.57;2.80;;;;;28.10;94964.00;;;;7381194;19;20135;-76
2023/09/04 11:46:27;;;;;;;3.55;2.80;;;;;27.20;94962.00;;;;7382210;19;20159;-75
2023/09/04 11:49:03;;;;;;;2.97;2.58;;;;;27.50;94961.00;;;;7382864;19;20596;-77
2023/09/04 11:51:35;;;;;;;4.35;3.10;;;;;28.20;94961.00;;;;7382744;19;20140;-75
2023/09/04 11:54:10;;;;;;;3.78;3.00;;;;;28.00;94952.00;;;;7383232;19;20143;-75
2023/09/04 11:56:44;;;;;;;3.15;2.60;;;;;27.60;94953.00;;;;7384760;19;20129;-74
2023/09/04 11:59:18;;;;;;;3.55;2.90;;;;;28.00;94952.00;;;;7382644;19;20147;-75
2023/09/04 12:01:52;;;;;;;3.05;2.80;;;;;28.20;94955.00;;;;7382714;19;20639;-74
2023/09/04 12:04:27;;;;;;;2.90;2.70;;;;;28.30;94953.00;;;;7382019;19;20580;-75
2023/09/04 12:06:54;;;;;;;2.80;2.53;;;;;28.80;94945.00;;;;7383157;19;20150;-77
2023/09/04 12:09:30;;;;;;;10.63;3.42;;;;;28.40;94942.00;;;;7382355;19;20152;-76
2023/09/04 12:12:04;;;;;;;3.17;2.88;;;;;28.30;94945.00;;;;7383019;19;20143;-74
2023/09/04 12:14:45;;;;;;;3.78;2.90;;;;;28.40;94937.00;;;;7382761;19;20152;-77
2023/09/04 12:17:20;;;;;;;3.00;2.70;;;;;28.30;94936.00;;;;7381422;19;20183;-77
2023/09/04 12:19:55;;;;;;;16.77;4.00;;;;;28.40;94946.00;;;;7379785;19;20152;-78
2023/09/04 12:22:30;;;;;;;9.52;2.80;;;;;27.80;94941.00;;;;7381106;19;20151;-79
2023/09/04 12:25:08;;;;;;;6.63;2.95;;;;;28.10;94949.00;;;;7382857;19;20499;-76
2023/09/04 12:27:43;;;;;;;3.65;2.97;;;;;27.50;94940.00;;;;7382783;19;20583;-76
2023/09/04 12:30:23;;;;;;;4.38;2.92;;;;;28.30;94942.00;;;;7379680;19;20152;-78
2023/09/04 12:32:56;;;;;;;7.25;2.70;;;;;28.10;94934.00;;;;7380182;19;20148;-76
2023/09/04 12:35:31;;;;;;;4.18;2.50;;;;;28.90;94940.00;;;;7380160;19;20141;-76
2023/09/04 12:37:59;;;;;;;2.75;2.55;;;;;28.90;94934.00;;;;7379843;19;20145;-76
2023/09/04 12:40:35;;;;;;;3.60;2.45;;;;;28.90;94933.00;;;;7379050;19;20136;-79
2023/09/04 12:43:03;;;;;;;4.35;2.90;;;;;28.80;94937.00;;;;7383264;19;20652;-79
2023/09/04 12:45:39;;;;;;;2.85;2.65;;;;;28.30;94928.00;;;;7388158;19;20179;-79
2023/09/04 12:48:14;;;;;;;2.90;2.63;;;;;28.20;94915.00;;;;7386473;19;20152;-78
2023/09/04 12:50:49;;;;;;;3.75;2.42;;;;;28.60;94912.00;;;;7387990;19;20464;-77